sensor_id;sensor_type;location;lat;lon;timestamp;temperature;humidity
2945;DHT22;1482;51.398;7.128;2024-02-21T00:02:07;9.20;99.90
2945;DHT22;1482;51.398;7.128;2024-02-21T00:04:33;9.10;99.90
2945;DHT22;1482;51.398;7.128;2024-02-21T00:06:59;9.10;99.90
2945;DHT22;1482;51.398;7.128;2024-02-21T00:09:24;9.10;99.90
2945;DHT22;1482;51.398;7.128;2024-02-21T00:11:52;9.10;99.90
2945;DHT22;1482;51.398;7.128;2024-02-21T00:14:18;9.10;99.90
2945;DHT22;1482;51.398;7.128;2024-02-21T00:16:44;9.10;99.90
2945;DHT22;1482;51.398;7.128;2024-02-21T00:19:09;9.00;99.90
2945;DHT22;1482;51.398;7.128;2024-02-21T00:21:35;9.10;99.90
2945;DHT22;1482;51.398;7.128;2024-02-21T00:24:00;9.20;99.90
2945;DHT22;1482;51.398;7.128;2024-02-21T00:26:26;9.10;99.90
2945;DHT22;1482;51.398;7.128;2024-02-21T00:28:51;9.10;99.90
2945;DHT22;1482;51.398;7.128;2024-02-21T00:31:17;9.20;99.90
2945;DHT22;1482;51.398;7.128;2024-02-21T00:33:42;9.20;99.90
2945;DHT22;1482;51.398;7.128;2024-02-21T00:36:08;9.20;99.90
2945;DHT22;1482;51.398;7.128;2024-02-21T00:38:33;9.20;99.90
2945;DHT22;1482;51.398;7.128;2024-02-21T00:40:59;9.20;99.90
2945;DHT22;1482;51.398;7.128;2024-02-21T00:43:24;9.20;99.90
2945;DHT22;1482;51.398;7.128;2024-02-21T00:45:50;9.20;99.90
2945;DHT22;1482;51.398;7.128;2024-02-21T00:48:16;9.10;99.90
2945;DHT22;1482;51.398;7.128;2024-02-21T00:50:41;9.10;99.90
2945;DHT22;1482;51.398;7.128;2024-02-21T00:53:07;9.20;99.90
2945;DHT22;1482;51.398;7.128;2024-02-21T00:55:32;9.20;99.90
2945;DHT22;1482;51.398;7.128;2024-02-21T00:57:58;9.20;99.90
2945;DHT22;1482;51.398;7.128;2024-02-21T01:00:24;9.10;99.90
2945;DHT22;1482;51.398;7.128;2024-02-21T01:02:49;9.10;99.90
2945;DHT22;1482;51.398;7.128;2024-02-21T01:05:15;9.20;99.90
2945;DHT22;1482;51.398;7.128;2024-02-21T01:07:40;9.20;99.90
2945;DHT22;1482;51.398;7.128;2024-02-21T01:10:06;9.20;99.90
2945;DHT22;1482;51.398;7.128;2024-02-21T01:12:32;9.20;99.90
2945;DHT22;1482;51.398;7.128;2024-02-21T01:14:57;9.20;99.90
2945;DHT22;1482;51.398;7.128;2024-02-21T01:17:23;9.20;99.90
2945;DHT22;1482;51.398;7.128;2024-02-21T01:19:48;9.10;99.90
2945;DHT22;1482;51.398;7.128;2024-02-21T01:22:14;9.20;99.90
2945;DHT22;1482;51.398;7.128;2024-02-21T01:24:41;9.20;99.90
2945;DHT22;1482;51.398;7.128;2024-02-21T01:27:06;9.20;99.90
2945;DHT22;1482;51.398;7.128;2024-02-21T01:29:32;9.20;99.90
2945;DHT22;1482;51.398;7.128;2024-02-21T01:31:57;9.10;99.90
2945;DHT22;1482;51.398;7.128;2024-02-21T01:34:23;9.20;99.90
2945;DHT22;1482;51.398;7.128;2024-02-21T01:36:49;9.10;99.90
2945;DHT22;1482;51.398;7.128;2024-02-21T01:39:14;9.10;99.90
2945;DHT22;1482;51.398;7.128;2024-02-21T01:41:40;9.10;99.90
2945;DHT22;1482;51.398;7.128;2024-02-21T01:44:05;9.10;99.90
2945;DHT22;1482;51.398;7.128;2024-02-21T01:46:31;9.00;99.90
2945;DHT22;1482;51.398;7.128;2024-02-21T01:48:57;9.10;99.90
2945;DHT22;1482;51.398;7.128;2024-02-21T01:51:26;9.00;99.90
2945;DHT22;1482;51.398;7.128;2024-02-21T01:53:52;8.90;99.90
2945;DHT22;1482;51.398;7.128;2024-02-21T01:56:18;9.00;99.90
2945;DHT22;1482;51.398;7.128;2024-02-21T01:58:45;9.00;99.90
2945;DHT22;1482;51.398;7.128;2024-02-21T02:01:12;9.10;99.90
2945;DHT22;1482;51.398;7.128;2024-02-21T02:03:37;9.10;99.90
2945;DHT22;1482;51.398;7.128;2024-02-21T02:06:05;9.10;99.90
2945;DHT22;1482;51.398;7.128;2024-02-21T02:08:31;9.10;99.90
2945;DHT22;1482;51.398;7.128;2024-02-21T02:10:57;9.10;99.90
2945;DHT22;1482;51.398;7.128;2024-02-21T02:13:23;9.10;99.90
2945;DHT22;1482;51.398;7.128;2024-02-21T02:15:49;9.10;99.90
2945;DHT22;1482;51.398;7.128;2024-02-21T02:18:16;9.10;99.90
2945;DHT22;1482;51.398;7.128;2024-02-21T02:20:42;9.10;99.90
2945;DHT22;1482;51.398;7.128;2024-02-21T02:25:47;9.20;99.90
2945;DHT22;1482;51.398;7.128;2024-02-21T02:28:17;9.00;99.90
2945;DHT22;1482;51.398;7.128;2024-02-21T02:30:43;9.10;99.90
2945;DHT22;1482;51.398;7.128;2024-02-21T02:33:11;9.10;99.90
2945;DHT22;1482;51.398;7.128;2024-02-21T02:35:37;9.10;99.90
2945;DHT22;1482;51.398;7.128;2024-02-21T02:38:03;9.00;99.90
2945;DHT22;1482;51.398;7.128;2024-02-21T02:40:29;9.00;99.90
2945;DHT22;1482;51.398;7.128;2024-02-21T02:42:55;9.10;99.90
2945;DHT22;1482;51.398;7.128;2024-02-21T02:45:22;9.00;99.90
2945;DHT22;1482;51.398;7.128;2024-02-21T02:47:52;9.00;99.90
2945;DHT22;1482;51.398;7.128;2024-02-21T02:50:19;9.00;99.90
2945;DHT22;1482;51.398;7.128;2024-02-21T02:52:45;9.00;99.90
2945;DHT22;1482;51.398;7.128;2024-02-21T02:55:10;8.90;99.90
2945;DHT22;1482;51.398;7.128;2024-02-21T02:57:36;8.90;99.90
2945;DHT22;1482;51.398;7.128;2024-02-21T03:00:02;8.90;99.90
2945;DHT22;1482;51.398;7.128;2024-02-21T03:02:28;8.90;99.90
2945;DHT22;1482;51.398;7.128;2024-02-21T03:04:53;8.80;99.90
2945;DHT22;1482;51.398;7.128;2024-02-21T03:07:20;8.70;99.90
2945;DHT22;1482;51.398;7.128;2024-02-21T03:09:46;8.70;99.90
2945;DHT22;1482;51.398;7.128;2024-02-21T03:12:11;8.70;99.90
2945;DHT22;1482;51.398;7.128;2024-02-21T03:14:37;8.60;99.90
2945;DHT22;1482;51.398;7.128;2024-02-21T03:17:03;8.60;99.90
2945;DHT22;1482;51.398;7.128;2024-02-21T03:19:29;8.60;99.90
2945;DHT22;1482;51.398;7.128;2024-02-21T03:21:55;8.60;99.90
2945;DHT22;1482;51.398;7.128;2024-02-21T03:24:21;8.60;99.90
2945;DHT22;1482;51.398;7.128;2024-02-21T03:26:47;8.60;99.90
2945;DHT22;1482;51.398;7.128;2024-02-21T03:29:15;8.70;99.90
2945;DHT22;1482;51.398;7.128;2024-02-21T03:31:40;8.70;99.90
2945;DHT22;1482;51.398;7.128;2024-02-21T03:34:06;8.70;99.90
2945;DHT22;1482;51.398;7.128;2024-02-21T03:36:32;8.70;99.90
2945;DHT22;1482;51.398;7.128;2024-02-21T03:38:57;8.80;99.90
2945;DHT22;1482;51.398;7.128;2024-02-21T03:41:23;8.70;99.90
2945;DHT22;1482;51.398;7.128;2024-02-21T03:43:48;8.70;99.90
2945;DHT22;1482;51.398;7.128;2024-02-21T03:46:14;8.80;99.90
2945;DHT22;1482;51.398;7.128;2024-02-21T03:48:40;8.80;99.90
2945;DHT22;1482;51.398;7.128;2024-02-21T03:51:06;8.80;99.90
2945;DHT22;1482;51.398;7.128;2024-02-21T03:53:32;8.80;99.90
2945;DHT22;1482;51.398;7.128;2024-02-21T03:56:01;8.80;99.90
2945;DHT22;1482;51.398;7.128;2024-02-21T03:58:31;8.80;99.90
2945;DHT22;1482;51.398;7.128;2024-02-21T04:01:00;8.80;99.90
2945;DHT22;1482;51.398;7.128;2024-02-21T04:03:26;8.80;99.90
2945;DHT22;1482;51.398;7.128;2024-02-21T04:05:51;8.80;99.90
2945;DHT22;1482;51.398;7.128;2024-02-21T04:08:17;8.80;99.90
2945;DHT22;1482;51.398;7.128;2024-02-21T04:10:43;8.80;99.90
2945;DHT22;1482;51.398;7.128;2024-02-21T04:13:09;8.90;99.90
2945;DHT22;1482;51.398;7.128;2024-02-21T04:15:35;8.90;99.90
2945;DHT22;1482;51.398;7.128;2024-02-21T04:18:01;8.90;99.90
2945;DHT22;1482;51.398;7.128;2024-02-21T04:20:26;8.90;99.90
2945;DHT22;1482;51.398;7.128;2024-02-21T04:22:52;9.00;99.90
2945;DHT22;1482;51.398;7.128;2024-02-21T04:25:18;9.00;99.90
2945;DHT22;1482;51.398;7.128;2024-02-21T04:27:44;9.10;99.90
2945;DHT22;1482;51.398;7.128;2024-02-21T04:30:10;9.10;99.90
2945;DHT22;1482;51.398;7.128;2024-02-21T04:32:35;9.00;99.90
2945;DHT22;1482;51.398;7.128;2024-02-21T04:35:01;9.00;99.90
2945;DHT22;1482;51.398;7.128;2024-02-21T04:37:27;9.10;99.90
2945;DHT22;1482;51.398;7.128;2024-02-21T04:39:52;9.00;99.90
2945;DHT22;1482;51.398;7.128;2024-02-21T04:42:18;9.00;99.90
2945;DHT22;1482;51.398;7.128;2024-02-21T04:44:43;9.00;99.90
2945;DHT22;1482;51.398;7.128;2024-02-21T04:47:09;9.00;99.90
2945;DHT22;1482;51.398;7.128;2024-02-21T04:49:35;9.10;99.90
2945;DHT22;1482;51.398;7.128;2024-02-21T04:52:01;9.10;99.90
2945;DHT22;1482;51.398;7.128;2024-02-21T04:54:26;9.10;99.90
2945;DHT22;1482;51.398;7.128;2024-02-21T04:56:52;9.10;99.90
2945;DHT22;1482;51.398;7.128;2024-02-21T04:59:18;9.10;99.90
2945;DHT22;1482;51.398;7.128;2024-02-21T05:01:43;9.20;99.90
2945;DHT22;1482;51.398;7.128;2024-02-21T05:04:09;9.10;99.90
2945;DHT22;1482;51.398;7.128;2024-02-21T05:06:41;9.10;99.90
2945;DHT22;1482;51.398;7.128;2024-02-21T05:09:08;9.10;99.90
2945;DHT22;1482;51.398;7.128;2024-02-21T05:11:34;9.20;99.90
2945;DHT22;1482;51.398;7.128;2024-02-21T05:14:00;9.10;99.90
2945;DHT22;1482;51.398;7.128;2024-02-21T05:16:25;9.00;99.90
2945;DHT22;1482;51.398;7.128;2024-02-21T05:18:51;9.10;99.90
2945;DHT22;1482;51.398;7.128;2024-02-21T05:21:16;9.10;99.90
2945;DHT22;1482;51.398;7.128;2024-02-21T05:23:42;9.00;99.90
2945;DHT22;1482;51.398;7.128;2024-02-21T05:26:07;9.00;99.90
2945;DHT22;1482;51.398;7.128;2024-02-21T05:28:33;9.00;99.90
2945;DHT22;1482;51.398;7.128;2024-02-21T05:30:58;9.00;99.90
2945;DHT22;1482;51.398;7.128;2024-02-21T05:33:24;9.00;99.90
2945;DHT22;1482;51.398;7.128;2024-02-21T05:35:50;9.00;99.90
2945;DHT22;1482;51.398;7.128;2024-02-21T05:38:16;9.00;99.90
2945;DHT22;1482;51.398;7.128;2024-02-21T05:40:42;9.00;99.90
2945;DHT22;1482;51.398;7.128;2024-02-21T05:43:08;9.00;99.90
2945;DHT22;1482;51.398;7.128;2024-02-21T05:45:34;8.90;99.90
2945;DHT22;1482;51.398;7.128;2024-02-21T05:48:00;8.90;99.90
2945;DHT22;1482;51.398;7.128;2024-02-21T05:50:26;8.90;99.90
2945;DHT22;1482;51.398;7.128;2024-02-21T05:52:53;9.00;99.90
2945;DHT22;1482;51.398;7.128;2024-02-21T05:55:19;9.00;99.90
2945;DHT22;1482;51.398;7.128;2024-02-21T05:57:45;8.90;99.90
2945;DHT22;1482;51.398;7.128;2024-02-21T06:00:11;8.90;99.90
2945;DHT22;1482;51.398;7.128;2024-02-21T06:02:36;9.00;99.90
2945;DHT22;1482;51.398;7.128;2024-02-21T06:05:02;8.90;99.90
2945;DHT22;1482;51.398;7.128;2024-02-21T06:07:28;8.90;99.90
2945;DHT22;1482;51.398;7.128;2024-02-21T06:09:53;9.00;99.90
2945;DHT22;1482;51.398;7.128;2024-02-21T06:12:19;8.90;99.90
2945;DHT22;1482;51.398;7.128;2024-02-21T06:14:45;9.00;99.90
2945;DHT22;1482;51.398;7.128;2024-02-21T06:17:10;9.00;99.90
2945;DHT22;1482;51.398;7.128;2024-02-21T06:19:40;9.00;99.90
2945;DHT22;1482;51.398;7.128;2024-02-21T06:22:05;8.90;99.90
2945;DHT22;1482;51.398;7.128;2024-02-21T06:24:33;8.90;99.90
2945;DHT22;1482;51.398;7.128;2024-02-21T06:26:59;8.90;99.90
2945;DHT22;1482;51.398;7.128;2024-02-21T06:29:25;9.00;99.90
2945;DHT22;1482;51.398;7.128;2024-02-21T06:31:50;8.90;99.90
2945;DHT22;1482;51.398;7.128;2024-02-21T06:34:16;9.00;99.90
2945;DHT22;1482;51.398;7.128;2024-02-21T06:36:42;9.30;99.90
2945;DHT22;1482;51.398;7.128;2024-02-21T06:39:07;9.50;99.90
2945;DHT22;1482;51.398;7.128;2024-02-21T06:41:33;9.60;99.90
2945;DHT22;1482;51.398;7.128;2024-02-21T06:43:59;9.80;99.90
2945;DHT22;1482;51.398;7.128;2024-02-21T06:46:29;9.80;99.90
2945;DHT22;1482;51.398;7.128;2024-02-21T06:48:55;9.60;97.50
2945;DHT22;1482;51.398;7.128;2024-02-21T06:51:22;9.50;98.40
2945;DHT22;1482;51.398;7.128;2024-02-21T06:53:48;9.50;98.10
2945;DHT22;1482;51.398;7.128;2024-02-21T06:56:13;9.50;99.90
2945;DHT22;1482;51.398;7.128;2024-02-21T06:58:39;9.50;97.30
2945;DHT22;1482;51.398;7.128;2024-02-21T07:01:04;9.40;97.30
2945;DHT22;1482;51.398;7.128;2024-02-21T07:03:30;9.40;97.60
2945;DHT22;1482;51.398;7.128;2024-02-21T07:05:55;9.40;97.10
2945;DHT22;1482;51.398;7.128;2024-02-21T07:08:21;9.30;97.70
2945;DHT22;1482;51.398;7.128;2024-02-21T07:10:47;9.30;99.90
2945;DHT22;1482;51.398;7.128;2024-02-21T07:13:12;9.30;99.90
2945;DHT22;1482;51.398;7.128;2024-02-21T07:15:38;9.30;99.90
2945;DHT22;1482;51.398;7.128;2024-02-21T07:18:04;9.30;99.90
2945;DHT22;1482;51.398;7.128;2024-02-21T07:20:30;9.30;99.90
2945;DHT22;1482;51.398;7.128;2024-02-21T07:22:55;9.30;99.90
2945;DHT22;1482;51.398;7.128;2024-02-21T07:25:21;9.30;99.90
2945;DHT22;1482;51.398;7.128;2024-02-21T07:27:46;9.30;99.90
2945;DHT22;1482;51.398;7.128;2024-02-21T07:30:12;9.40;99.90
2945;DHT22;1482;51.398;7.128;2024-02-21T07:32:38;9.40;99.90
2945;DHT22;1482;51.398;7.128;2024-02-21T07:35:04;9.40;99.90
2945;DHT22;1482;51.398;7.128;2024-02-21T07:37:31;9.40;99.90
2945;DHT22;1482;51.398;7.128;2024-02-21T07:39:56;9.40;99.90
2945;DHT22;1482;51.398;7.128;2024-02-21T07:42:22;9.60;99.90
2945;DHT22;1482;51.398;7.128;2024-02-21T07:44:47;9.60;99.90
2945;DHT22;1482;51.398;7.128;2024-02-21T07:47:12;9.60;99.50
2945;DHT22;1482;51.398;7.128;2024-02-21T07:49:45;9.70;97.60
2945;DHT22;1482;51.398;7.128;2024-02-21T07:52:11;9.60;94.30
2945;DHT22;1482;51.398;7.128;2024-02-21T07:54:37;9.60;93.20
2945;DHT22;1482;51.398;7.128;2024-02-21T07:57:02;9.60;93.40
2945;DHT22;1482;51.398;7.128;2024-02-21T07:59:29;9.60;92.90
2945;DHT22;1482;51.398;7.128;2024-02-21T08:01:58;9.60;94.00
2945;DHT22;1482;51.398;7.128;2024-02-21T08:04:24;9.60;93.10
2945;DHT22;1482;51.398;7.128;2024-02-21T08:06:53;9.60;93.00
2945;DHT22;1482;51.398;7.128;2024-02-21T08:09:19;9.60;94.60
2945;DHT22;1482;51.398;7.128;2024-02-21T08:11:45;9.70;94.80
2945;DHT22;1482;51.398;7.128;2024-02-21T08:14:10;9.70;95.20
2945;DHT22;1482;51.398;7.128;2024-02-21T08:16:35;9.80;92.60
2945;DHT22;1482;51.398;7.128;2024-02-21T08:19:01;9.80;93.60
2945;DHT22;1482;51.398;7.128;2024-02-21T08:21:29;9.80;92.50
2945;DHT22;1482;51.398;7.128;2024-02-21T08:23:55;9.80;92.20
2945;DHT22;1482;51.398;7.128;2024-02-21T08:26:20;9.80;92.30
2945;DHT22;1482;51.398;7.128;2024-02-21T08:28:46;9.80;94.60
2945;DHT22;1482;51.398;7.128;2024-02-21T08:31:21;9.90;95.10
2945;DHT22;1482;51.398;7.128;2024-02-21T08:33:48;9.90;94.20
2945;DHT22;1482;51.398;7.128;2024-02-21T08:36:19;10.00;93.60
2945;DHT22;1482;51.398;7.128;2024-02-21T08:38:45;10.00;93.80
2945;DHT22;1482;51.398;7.128;2024-02-21T08:41:11;9.80;94.10
2945;DHT22;1482;51.398;7.128;2024-02-21T08:43:37;9.80;96.10
2945;DHT22;1482;51.398;7.128;2024-02-21T08:46:04;9.70;98.70
2945;DHT22;1482;51.398;7.128;2024-02-21T08:48:29;9.60;99.90
2945;DHT22;1482;51.398;7.128;2024-02-21T08:50:54;9.60;99.90
2945;DHT22;1482;51.398;7.128;2024-02-21T08:53:20;9.60;99.90
2945;DHT22;1482;51.398;7.128;2024-02-21T08:55:46;9.60;99.90
2945;DHT22;1482;51.398;7.128;2024-02-21T08:58:12;9.70;99.90
2945;DHT22;1482;51.398;7.128;2024-02-21T09:00:37;9.70;99.90
2945;DHT22;1482;51.398;7.128;2024-02-21T09:03:03;9.70;99.90
2945;DHT22;1482;51.398;7.128;2024-02-21T09:05:28;9.70;99.90
2945;DHT22;1482;51.398;7.128;2024-02-21T09:07:54;9.50;99.90
2945;DHT22;1482;51.398;7.128;2024-02-21T09:10:20;9.50;99.90
2945;DHT22;1482;51.398;7.128;2024-02-21T09:12:46;9.40;99.90
2945;DHT22;1482;51.398;7.128;2024-02-21T09:15:12;9.30;99.90
2945;DHT22;1482;51.398;7.128;2024-02-21T09:17:38;9.30;99.90
2945;DHT22;1482;51.398;7.128;2024-02-21T09:20:05;9.30;99.90
2945;DHT22;1482;51.398;7.128;2024-02-21T09:22:31;9.50;99.90
2945;DHT22;1482;51.398;7.128;2024-02-21T09:25:00;9.50;99.90
2945;DHT22;1482;51.398;7.128;2024-02-21T09:27:25;9.40;99.90
2945;DHT22;1482;51.398;7.128;2024-02-21T09:29:51;9.40;99.90
2945;DHT22;1482;51.398;7.128;2024-02-21T09:32:18;9.40;99.90
2945;DHT22;1482;51.398;7.128;2024-02-21T09:34:44;9.40;99.90
2945;DHT22;1482;51.398;7.128;2024-02-21T09:37:10;9.40;99.90
2945;DHT22;1482;51.398;7.128;2024-02-21T09:39:36;9.40;99.90
2945;DHT22;1482;51.398;7.128;2024-02-21T09:42:05;9.30;99.90
2945;DHT22;1482;51.398;7.128;2024-02-21T09:44:38;9.40;99.90
2945;DHT22;1482;51.398;7.128;2024-02-21T09:47:07;9.40;99.90
2945;DHT22;1482;51.398;7.128;2024-02-21T09:49:35;9.40;99.90
2945;DHT22;1482;51.398;7.128;2024-02-21T09:52:05;9.40;99.90
2945;DHT22;1482;51.398;7.128;2024-02-21T09:54:35;9.50;99.90
2945;DHT22;1482;51.398;7.128;2024-02-21T09:57:02;9.50;99.90
2945;DHT22;1482;51.398;7.128;2024-02-21T09:59:30;9.40;99.90
2945;DHT22;1482;51.398;7.128;2024-02-21T10:01:56;9.30;99.90
2945;DHT22;1482;51.398;7.128;2024-02-21T10:04:21;9.30;99.90
2945;DHT22;1482;51.398;7.128;2024-02-21T10:06:47;9.40;99.90
2945;DHT22;1482;51.398;7.128;2024-02-21T10:09:26;9.40;99.90
2945;DHT22;1482;51.398;7.128;2024-02-21T10:11:55;9.40;99.90
2945;DHT22;1482;51.398;7.128;2024-02-21T10:14:21;9.40;99.90
2945;DHT22;1482;51.398;7.128;2024-02-21T10:16:48;9.40;99.90
2945;DHT22;1482;51.398;7.128;2024-02-21T10:19:20;9.50;99.90
2945;DHT22;1482;51.398;7.128;2024-02-21T10:24:30;9.60;99.90
2945;DHT22;1482;51.398;7.128;2024-02-21T10:27:02;9.60;99.90
2945;DHT22;1482;51.398;7.128;2024-02-21T10:29:29;9.80;99.90
2945;DHT22;1482;51.398;7.128;2024-02-21T10:32:12;10.00;99.90
2945;DHT22;1482;51.398;7.128;2024-02-21T10:34:40;10.20;91.10
2945;DHT22;1482;51.398;7.128;2024-02-21T10:37:07;10.30;82.80
2945;DHT22;1482;51.398;7.128;2024-02-21T10:39:34;10.30;67.80
2945;DHT22;1482;51.398;7.128;2024-02-21T10:42:01;10.40;68.60
2945;DHT22;1482;51.398;7.128;2024-02-21T10:44:31;10.40;61.00
2945;DHT22;1482;51.398;7.128;2024-02-21T10:46:58;10.50;56.00
2945;DHT22;1482;51.398;7.128;2024-02-21T10:49:27;10.50;54.70
2945;DHT22;1482;51.398;7.128;2024-02-21T10:54:39;10.70;52.10
2945;DHT22;1482;51.398;7.128;2024-02-21T10:57:09;10.80;47.40
2945;DHT22;1482;51.398;7.128;2024-02-21T10:59:37;10.90;45.80
2945;DHT22;1482;51.398;7.128;2024-02-21T11:02:04;10.90;41.00
2945;DHT22;1482;51.398;7.128;2024-02-21T11:04:31;10.90;39.00
2945;DHT22;1482;51.398;7.128;2024-02-21T11:06:57;10.90;37.50
2945;DHT22;1482;51.398;7.128;2024-02-21T11:09:30;11.00;36.30
2945;DHT22;1482;51.398;7.128;2024-02-21T11:12:04;10.90;33.40
2945;DHT22;1482;51.398;7.128;2024-02-21T11:14:30;11.00;46.00
2945;DHT22;1482;51.398;7.128;2024-02-21T11:17:01;11.10;37.60
2945;DHT22;1482;51.398;7.128;2024-02-21T11:19:28;11.20;36.50
2945;DHT22;1482;51.398;7.128;2024-02-21T11:21:55;11.30;45.70
2945;DHT22;1482;51.398;7.128;2024-02-21T11:24:33;11.40;32.30
2945;DHT22;1482;51.398;7.128;2024-02-21T11:27:12;11.40;30.00
2945;DHT22;1482;51.398;7.128;2024-02-21T11:29:43;11.40;29.20
2945;DHT22;1482;51.398;7.128;2024-02-21T11:32:10;11.40;28.80
2945;DHT22;1482;51.398;7.128;2024-02-21T11:34:37;11.50;28.10
2945;DHT22;1482;51.398;7.128;2024-02-21T11:37:13;11.60;27.50
2945;DHT22;1482;51.398;7.128;2024-02-21T11:39:41;11.80;28.00
2945;DHT22;1482;51.398;7.128;2024-02-21T11:42:07;11.90;25.40
2945;DHT22;1482;51.398;7.128;2024-02-21T11:44:38;11.80;22.50
2945;DHT22;1482;51.398;7.128;2024-02-21T11:47:04;12.00;23.00
2945;DHT22;1482;51.398;7.128;2024-02-21T11:49:30;12.00;19.90
2945;DHT22;1482;51.398;7.128;2024-02-21T11:52:00;12.10;19.00
2945;DHT22;1482;51.398;7.128;2024-02-21T11:54:27;11.90;16.80
2945;DHT22;1482;51.398;7.128;2024-02-21T11:56:53;12.00;17.00
2945;DHT22;1482;51.398;7.128;2024-02-21T11:59:19;12.00;15.10
2945;DHT22;1482;51.398;7.128;2024-02-21T12:01:44;12.10;16.40
2945;DHT22;1482;51.398;7.128;2024-02-21T12:04:10;11.90;13.80
2945;DHT22;1482;51.398;7.128;2024-02-21T12:06:36;12.00;14.10
2945;DHT22;1482;51.398;7.128;2024-02-21T12:09:01;11.90;13.30
2945;DHT22;1482;51.398;7.128;2024-02-21T12:11:27;11.80;12.40
2945;DHT22;1482;51.398;7.128;2024-02-21T12:14:00;12.00;12.50
2945;DHT22;1482;51.398;7.128;2024-02-21T12:16:27;12.00;12.60
2945;DHT22;1482;51.398;7.128;2024-02-21T12:18:54;12.20;14.50
2945;DHT22;1482;51.398;7.128;2024-02-21T12:21:24;12.20;12.60
2945;DHT22;1482;51.398;7.128;2024-02-21T12:23:49;12.00;10.90
2945;DHT22;1482;51.398;7.128;2024-02-21T12:26:15;12.00;10.50
2945;DHT22;1482;51.398;7.128;2024-02-21T12:28:40;12.00;10.10
2945;DHT22;1482;51.398;7.128;2024-02-21T12:31:06;11.90;8.40
2945;DHT22;1482;51.398;7.128;2024-02-21T12:33:31;11.60;6.30
2945;DHT22;1482;51.398;7.128;2024-02-21T12:35:58;11.60;6.20
2945;DHT22;1482;51.398;7.128;2024-02-21T12:38:23;11.50;6.10
2945;DHT22;1482;51.398;7.128;2024-02-21T12:40:49;11.60;6.90
2945;DHT22;1482;51.398;7.128;2024-02-21T12:43:14;11.80;7.90
2945;DHT22;1482;51.398;7.128;2024-02-21T12:45:40;11.80;7.70
2945;DHT22;1482;51.398;7.128;2024-02-21T12:48:06;11.90;8.10
2945;DHT22;1482;51.398;7.128;2024-02-21T12:50:32;11.90;7.70
2945;DHT22;1482;51.398;7.128;2024-02-21T12:52:58;11.90;6.50
2945;DHT22;1482;51.398;7.128;2024-02-21T12:55:23;12.10;8.20
2945;DHT22;1482;51.398;7.128;2024-02-21T12:57:49;12.30;8.80
2945;DHT22;1482;51.398;7.128;2024-02-21T13:00:15;12.30;8.70
2945;DHT22;1482;51.398;7.128;2024-02-21T13:02:41;12.30;7.80
2945;DHT22;1482;51.398;7.128;2024-02-21T13:05:06;12.40;8.30
2945;DHT22;1482;51.398;7.128;2024-02-21T13:07:33;12.50;7.80
2945;DHT22;1482;51.398;7.128;2024-02-21T13:09:59;12.70;8.10
2945;DHT22;1482;51.398;7.128;2024-02-21T13:12:25;12.70;7.90
2945;DHT22;1482;51.398;7.128;2024-02-21T13:14:53;12.70;7.20
2945;DHT22;1482;51.398;7.128;2024-02-21T13:17:18;12.80;6.80
2945;DHT22;1482;51.398;7.128;2024-02-21T13:19:44;12.70;5.90
2945;DHT22;1482;51.398;7.128;2024-02-21T13:22:09;12.70;6.60
2945;DHT22;1482;51.398;7.128;2024-02-21T13:24:35;12.70;6.10
2945;DHT22;1482;51.398;7.128;2024-02-21T13:27:00;12.80;6.20
2945;DHT22;1482;51.398;7.128;2024-02-21T13:29:26;12.80;5.80
2945;DHT22;1482;51.398;7.128;2024-02-21T13:31:52;12.70;5.90
2945;DHT22;1482;51.398;7.128;2024-02-21T13:34:17;12.90;6.50
2945;DHT22;1482;51.398;7.128;2024-02-21T13:36:43;13.00;6.40
2945;DHT22;1482;51.398;7.128;2024-02-21T13:39:08;13.10;7.10
2945;DHT22;1482;51.398;7.128;2024-02-21T13:41:38;13.10;6.40
2945;DHT22;1482;51.398;7.128;2024-02-21T13:44:03;13.10;6.20
2945;DHT22;1482;51.398;7.128;2024-02-21T13:46:29;13.10;5.80
2945;DHT22;1482;51.398;7.128;2024-02-21T13:49:03;12.90;4.50
2945;DHT22;1482;51.398;7.128;2024-02-21T13:51:35;12.90;5.30
2945;DHT22;1482;51.398;7.128;2024-02-21T13:54:04;12.70;3.00
2945;DHT22;1482;51.398;7.128;2024-02-21T13:56:30;12.70;2.90
2945;DHT22;1482;51.398;7.128;2024-02-21T13:58:57;12.70;2.60
2945;DHT22;1482;51.398;7.128;2024-02-21T14:01:23;12.60;2.80
2945;DHT22;1482;51.398;7.128;2024-02-21T14:03:49;12.50;1.60
2945;DHT22;1482;51.398;7.128;2024-02-21T14:06:14;12.40;1.10
2945;DHT22;1482;51.398;7.128;2024-02-21T14:08:40;12.30;1.50
2945;DHT22;1482;51.398;7.128;2024-02-21T14:11:06;12.40;1.20
2945;DHT22;1482;51.398;7.128;2024-02-21T14:13:32;12.40;1.00
2945;DHT22;1482;51.398;7.128;2024-02-21T14:15:57;12.40;1.70
2945;DHT22;1482;51.398;7.128;2024-02-21T14:18:23;12.50;1.60
2945;DHT22;1482;51.398;7.128;2024-02-21T14:20:48;12.50;2.00
2945;DHT22;1482;51.398;7.128;2024-02-21T14:23:14;12.50;1.40
2945;DHT22;1482;51.398;7.128;2024-02-21T14:25:40;12.40;1.10
2945;DHT22;1482;51.398;7.128;2024-02-21T14:28:07;12.40;1.00
2945;DHT22;1482;51.398;7.128;2024-02-21T14:30:34;12.40;1.00
2945;DHT22;1482;51.398;7.128;2024-02-21T14:33:00;12.40;1.00
2945;DHT22;1482;51.398;7.128;2024-02-21T14:35:26;12.40;1.00
2945;DHT22;1482;51.398;7.128;2024-02-21T14:37:52;12.30;1.00
2945;DHT22;1482;51.398;7.128;2024-02-21T14:40:18;12.30;1.00
2945;DHT22;1482;51.398;7.128;2024-02-21T14:42:46;12.30;1.00
2945;DHT22;1482;51.398;7.128;2024-02-21T14:45:11;12.20;1.00
2945;DHT22;1482;51.398;7.128;2024-02-21T14:47:37;12.10;1.00
2945;DHT22;1482;51.398;7.128;2024-02-21T14:50:03;12.10;1.00
2945;DHT22;1482;51.398;7.128;2024-02-21T14:52:30;12.10;1.00
2945;DHT22;1482;51.398;7.128;2024-02-21T14:54:56;12.10;1.00
2945;DHT22;1482;51.398;7.128;2024-02-21T14:57:22;12.20;1.00
2945;DHT22;1482;51.398;7.128;2024-02-21T14:59:47;12.20;1.00
2945;DHT22;1482;51.398;7.128;2024-02-21T15:02:22;12.00;1.00
2945;DHT22;1482;51.398;7.128;2024-02-21T15:04:48;12.00;1.00
2945;DHT22;1482;51.398;7.128;2024-02-21T15:07:14;12.10;1.00
2945;DHT22;1482;51.398;7.128;2024-02-21T15:09:39;12.10;1.00
2945;DHT22;1482;51.398;7.128;2024-02-21T15:12:05;11.90;1.00
2945;DHT22;1482;51.398;7.128;2024-02-21T15:14:31;11.90;1.00
2945;DHT22;1482;51.398;7.128;2024-02-21T15:16:57;11.90;1.00
2945;DHT22;1482;51.398;7.128;2024-02-21T15:19:22;11.90;1.00
2945;DHT22;1482;51.398;7.128;2024-02-21T15:21:48;11.80;1.00
2945;DHT22;1482;51.398;7.128;2024-02-21T15:24:13;11.80;1.00
2945;DHT22;1482;51.398;7.128;2024-02-21T15:26:39;11.70;1.00
2945;DHT22;1482;51.398;7.128;2024-02-21T15:29:04;11.70;1.00
2945;DHT22;1482;51.398;7.128;2024-02-21T15:31:30;11.70;1.00
2945;DHT22;1482;51.398;7.128;2024-02-21T15:33:56;11.70;1.00
2945;DHT22;1482;51.398;7.128;2024-02-21T15:36:21;11.60;1.00
2945;DHT22;1482;51.398;7.128;2024-02-21T15:38:47;11.60;1.00
2945;DHT22;1482;51.398;7.128;2024-02-21T15:41:12;11.50;1.00
2945;DHT22;1482;51.398;7.128;2024-02-21T15:43:39;11.50;1.00
2945;DHT22;1482;51.398;7.128;2024-02-21T15:46:05;11.50;1.00
2945;DHT22;1482;51.398;7.128;2024-02-21T15:48:31;11.40;1.00
2945;DHT22;1482;51.398;7.128;2024-02-21T15:51:00;11.40;1.00
2945;DHT22;1482;51.398;7.128;2024-02-21T15:53:25;11.40;1.00
2945;DHT22;1482;51.398;7.128;2024-02-21T15:55:51;11.40;1.00
2945;DHT22;1482;51.398;7.128;2024-02-21T15:58:16;11.30;1.00
2945;DHT22;1482;51.398;7.128;2024-02-21T16:00:45;11.30;1.00
2945;DHT22;1482;51.398;7.128;2024-02-21T16:03:10;11.20;1.00
2945;DHT22;1482;51.398;7.128;2024-02-21T16:05:36;11.30;1.00
2945;DHT22;1482;51.398;7.128;2024-02-21T16:08:01;11.20;1.00
2945;DHT22;1482;51.398;7.128;2024-02-21T16:10:27;11.20;1.00
2945;DHT22;1482;51.398;7.128;2024-02-21T16:12:52;11.10;1.00
2945;DHT22;1482;51.398;7.128;2024-02-21T16:15:18;11.20;1.00
2945;DHT22;1482;51.398;7.128;2024-02-21T16:17:43;11.10;1.00
2945;DHT22;1482;51.398;7.128;2024-02-21T16:20:09;11.10;1.00